Patriot — WDC2859 — position and weather

sailwx.info

Track history (hours):
 
Tides and Currents Weather Stations Pressure Air Temp Water Temp Dewpoint Dewpoint Depression Visibility Wind Speed Wind Dir Waves Ship Positions

Patriot

Owner: AMNAV Maritime Corporation, Oakland, CA. More information available from US FCC via Universal Licensing System and Coast Guard Vessel Documentation Center.

Last reported at 2016-Jul-30 09:30 UTC. Time now 2016-Jul-30 11:10 UTC.
Position N 38°03' W 122°06'.

Length 31 m; draft 4.6 m.

Type: Tug. MMSI: 366998680.

Date/timePositionNaut miles runAvg speedWind from/ knotsBaromVisibWave heightAir tempDewpointWater temp
2016-Jul-30 09:30N 38°03' W 122°06'1111.6
2016-Jul-30 08:33N 38°02' W 121°52'2 1.7
2016-Jul-30 07:34N 38°02' W 121°50'3 2.9
2016-Jul-30 06:34N 38°03' W 121°53'12 3.8
2016-Jul-30 03:26N 38°02' W 122°08'0 0.0
2016-Jul-30 02:33N 38°02' W 122°08'0 0.0
2016-Jul-30 00:34N 38°02' W 122°08'0 0.0
2016-Jul-29 23:34N 38°02' W 122°08'0 0.0
2016-Jul-29 22:28N 38°02' W 122°08'0 0.0
2016-Jul-29 15:07N 38°02' W 122°08'2 4.1
2016-Jul-29 14:33N 38°03' W 122°11'1110.6
2016-Jul-29 13:33N 38°01' W 122°24'6 6.2
2016-Jul-29 12:33N 37°55' W 122°23'0 0.0
2016-Jul-29 11:32N 37°55' W 122°23'0 0.0
2016-Jul-29 10:34N 37°55' W 122°23'0 0.0
2016-Jul-29 09:34N 37°55' W 122°23'0 0.0
2016-Jul-29 08:34N 37°55' W 122°23'0 0.0
2016-Jul-29 07:33N 37°55' W 122°23'0 0.0
2016-Jul-29 06:34N 37°55' W 122°23'1 0.9
2016-Jul-29 05:33N 37°54' W 122°22'1 0.6
2016-Jul-29 04:33N 37°55' W 122°22'1 1.4
2016-Jul-29 03:33N 37°54' W 122°24'0 0.0
2016-Jul-29 02:33N 37°54' W 122°24'0 0.0
2016-Jul-29 01:34N 37°54' W 122°24'1 1.3
2016-Jul-29 00:33N 37°55' W 122°25'3 2.6
2016-Jul-28 23:33N 37°54' W 122°22'6 5.1
2016-Jul-28 22:29N 37°59' W 122°25'1010.7
2016-Jul-28 21:33N 38°04' W 122°14'4 0.6
2016-Jul-28 14:08N 38°02' W 122°09'2 0.1
2016-Jul-27 23:28N 38°03' W 122°11'1111.5
2016-Jul-27 22:33N 38°00' W 122°24'1111.2
2016-Jul-27 21:33N 37°49' W 122°22'2 2.3
2016-Jul-27 20:33N 37°49' W 122°19'0 0.0
2016-Jul-27 19:33N 37°49' W 122°19'0 0.0
2016-Jul-27 18:33N 37°49' W 122°19'2 1.6
2016-Jul-27 17:34N 37°48' W 122°19'1 0.9
2016-Jul-27 16:34N 37°48' W 122°18'3 3.4
2016-Jul-27 15:33N 37°47' W 122°22'1 0.6
2016-Jul-27 14:34N 37°47' W 122°23'1 0.6
2016-Jul-27 13:34N 37°48' W 122°23'4 3.9
2016-Jul-27 12:34N 37°48' W 122°18'2 2.1
2016-Jul-27 11:34N 37°48' W 122°21'0 0.0
2016-Jul-27 10:33N 37°48' W 122°21'0 0.0
2016-Jul-27 09:34N 37°48' W 122°21'0 0.0
2016-Jul-27 08:33N 37°48' W 122°21'0 0.0
2016-Jul-27 07:34N 37°48' W 122°21'0 0.0
2016-Jul-27 06:34N 37°48' W 122°21'0 0.0
2016-Jul-27 05:34N 37°48' W 122°21'5 4.6
2016-Jul-27 04:33N 37°52' W 122°24'2 2.5
2016-Jul-27 03:33N 37°54' W 122°22'3 2.9
2016-Jul-27 02:34N 37°53' W 122°25'4 3.9
2016-Jul-27 01:33N 37°50' W 122°22'4 3.6
2016-Jul-27 00:33N 37°48' W 122°19'0 0.0
2016-Jul-26 23:34N 37°48' W 122°19'2 1.5
2016-Jul-26 22:33N 37°49' W 122°19'0 0.0
2016-Jul-26 21:33N 37°49' W 122°19'0 0.0
2016-Jul-26 20:33N 37°49' W 122°19'0 0.0
2016-Jul-26 19:33N 37°49' W 122°19'0 0.0
2016-Jul-26 18:33N 37°49' W 122°19'0 0.0
2016-Jul-26 17:33N 37°49' W 122°19'0 0.0
2016-Jul-26 16:33N 37°49' W 122°19'0 0.0
2016-Jul-26 15:33N 37°49' W 122°19'0 0.0
2016-Jul-26 14:33N 37°49' W 122°19'2 1.6
2016-Jul-26 13:33N 37°48' W 122°19'2 2.0
2016-Jul-26 12:33N 37°48' W 122°22'3 2.6
2016-Jul-26 11:33N 37°49' W 122°19'0 0.0
2016-Jul-26 10:33N 37°49' W 122°19'0 0.0
2016-Jul-26 09:34N 37°49' W 122°19'0 0.0
2016-Jul-26 08:33N 37°49' W 122°19'0 0.0
2016-Jul-26 07:33N 37°49' W 122°19'0 0.0
2016-Jul-26 06:33N 37°49' W 122°19'0 0.0
2016-Jul-26 05:33N 37°49' W 122°19'0 0.0
2016-Jul-26 04:34N 37°49' W 122°19'0 0.0
2016-Jul-26 03:33N 37°49' W 122°19'0 0.0
2016-Jul-26 02:33N 37°49' W 122°19'0 0.0
2016-Jul-26 01:34N 37°49' W 122°19'0 0.0
2016-Jul-26 00:34N 37°49' W 122°19'0 0.0
2016-Jul-25 23:34N 37°49' W 122°19'0 0.0
2016-Jul-25 22:34N 37°49' W 122°19'0 0.0
2016-Jul-25 21:34N 37°49' W 122°19'0 0.0
2016-Jul-25 20:34N 37°49' W 122°19'0 0.0
2016-Jul-25 19:33N 37°49' W 122°19'0 0.0
2016-Jul-25 18:33N 37°49' W 122°19'0 0.0
2016-Jul-25 17:34N 37°49' W 122°19'0 0.0
2016-Jul-25 16:33N 37°49' W 122°19'0 0.0
2016-Jul-25 15:33N 37°49' W 122°19'0 0.0
2016-Jul-25 14:33N 37°49' W 122°19'0 0.0
2016-Jul-25 13:34N 37°49' W 122°19'0 0.0
2016-Jul-25 12:33N 37°49' W 122°19'1 0.9
2016-Jul-25 11:33N 37°49' W 122°20'0 0.3
2016-Jul-25 10:33N 37°49' W 122°20'1 1.2
2016-Jul-25 09:33N 37°49' W 122°19'0 0.0
2016-Jul-25 08:34N 37°49' W 122°19'0 0.0
2016-Jul-25 07:33N 37°49' W 122°19'0 0.0
2016-Jul-25 06:34N 37°49' W 122°19'0 0.0
2016-Jul-25 05:34N 37°49' W 122°19'0 0.0
2016-Jul-25 04:33N 37°49' W 122°19'0 0.0
2016-Jul-25 03:33N 37°49' W 122°19'2 1.6
2016-Jul-25 02:33N 37°48' W 122°19'0 0.2
2016-Jul-25 01:34N 37°48' W 122°19'1 0.5
2016-Jul-25 00:33N 37°48' W 122°19'2 1.6
2016-Jul-24 23:33N 37°49' W 122°19'0 0.0
2016-Jul-24 22:33N 37°49' W 122°19'0 0.0
2016-Jul-24 21:33N 37°49' W 122°19'0 0.0
2016-Jul-24 20:33N 37°49' W 122°19'0 0.0
2016-Jul-24 19:33N 37°49' W 122°19'0 0.0
2016-Jul-24 18:33N 37°49' W 122°19'0 0.0
2016-Jul-24 17:33N 37°49' W 122°19'0 0.0
2016-Jul-24 16:33N 37°49' W 122°19'0 0.0
2016-Jul-24 15:33N 37°49' W 122°19'0 0.0
2016-Jul-24 14:33N 37°49' W 122°19'2 1.6
2016-Jul-24 13:32N 37°48' W 122°18'1 0.5
2016-Jul-24 12:30N 37°48' W 122°17'3 2.8
2016-Jul-24 11:33N 37°48' W 122°21'2 1.9
2016-Jul-24 10:33N 37°49' W 122°19'0 0.0
2016-Jul-24 09:33N 37°49' W 122°19'0 0.0
2016-Jul-24 08:33N 37°49' W 122°19'0 0.0
2016-Jul-24 07:33N 37°49' W 122°19'0 0.0
2016-Jul-24 06:34N 37°49' W 122°19'0 0.0
2016-Jul-24 05:33N 37°49' W 122°19'0 0.0
2016-Jul-24 04:33N 37°49' W 122°19'0 0.0
2016-Jul-24 03:33N 37°49' W 122°19'0 0.0
2016-Jul-24 02:33N 37°49' W 122°19'0 0.0
2016-Jul-24 01:33N 37°49' W 122°19'0 0.0
2016-Jul-24 00:33N 37°49' W 122°19'0 0.0
2016-Jul-23 23:33N 37°49' W 122°19'0 0.0
2016-Jul-23 22:33N 37°49' W 122°19'0 0.0
2016-Jul-23 21:33N 37°49' W 122°19'0 0.0
2016-Jul-23 20:33N 37°49' W 122°19'0 0.0
2016-Jul-23 19:33N 37°49' W 122°19'0 0.0
2016-Jul-23 18:33N 37°49' W 122°19'0 0.0
2016-Jul-23 17:33N 37°49' W 122°19'0 0.0
2016-Jul-23 16:33N 37°49' W 122°19'0 0.0
2016-Jul-23 15:33N 37°49' W 122°19'0 0.0
2016-Jul-23 14:33N 37°49' W 122°19'0 0.0
2016-Jul-23 13:33N 37°49' W 122°19'0 0.0
2016-Jul-23 12:33N 37°49' W 122°19'0 0.0
2016-Jul-23 11:33N 37°49' W 122°19'0 0.0
2016-Jul-23 10:33N 37°49' W 122°19'0 0.0
2016-Jul-23 09:33N 37°49' W 122°19'0 0.0
2016-Jul-23 08:34N 37°49' W 122°19'0 0.0
2016-Jul-23 07:33N 37°49' W 122°19'0 0.0
2016-Jul-23 06:33N 37°49' W 122°19'6 3.2
2016-Jul-23 04:33N 37°55' W 122°22'1 0.9
2016-Jul-23 03:33N 37°54' W 122°22'3 3.2
2016-Jul-23 02:33N 37°56' W 122°26'7 7.0
2016-Jul-23 01:33N 38°02' W 122°21'9 8.3
2016-Jul-23 00:25N 38°02' W 122°09'6 0.5
2016-Jul-22 13:16N 38°04' W 122°02'8 7.2
2016-Jul-22 12:08N 38°02' W 121°52'0 0.0
2016-Jul-22 11:33N 38°02' W 121°52'2 2.1
2016-Jul-22 10:33N 38°01' W 121°49'6 5.3
2016-Jul-22 09:26N 38°03' W 121°56'17 0.6
2016-Jul-21 04:33N 38°03' W 122°18'10 9.6
2016-Jul-21 03:33N 37°55' W 122°24'2 1.9
2016-Jul-21 02:33N 37°54' W 122°22'3 2.8
2016-Jul-21 01:33N 37°53' W 122°25'2 1.8
2016-Jul-21 00:33N 37°54' W 122°24'0 0.0
2016-Jul-20 23:33N 37°54' W 122°24'0 0.0
2016-Jul-20 22:33N 37°54' W 122°24'0 0.0
2016-Jul-20 21:33N 37°54' W 122°24'0 0.0
2016-Jul-20 20:33N 37°54' W 122°24'1 1.4
2016-Jul-20 19:33N 37°55' W 122°22'3 2.6
2016-Jul-20 18:27N 37°54' W 122°25'7 7.7
2016-Jul-20 17:33N 37°48' W 122°21'0 0.0
2016-Jul-20 16:33N 37°48' W 122°21'0 0.0
2016-Jul-20 15:33N 37°48' W 122°21'0 0.0
2016-Jul-20 14:33N 37°48' W 122°21'0 0.0
2016-Jul-20 13:33N 37°48' W 122°21'2 1.8
2016-Jul-20 12:34N 37°48' W 122°18'0 0.4
2016-Jul-20 11:34N 37°48' W 122°19'2 1.5
2016-Jul-20 10:33N 37°49' W 122°19'0 0.2
2016-Jul-20 09:34N 37°49' W 122°19'  
Track history (hours):
 
Tides and Currents Weather Stations Pressure Air Temp Water Temp Dewpoint Dewpoint Depression Visibility Wind Speed Wind Dir Waves Ship Positions

Patriot

Owner: AMNAV Maritime Corporation, Oakland, CA. More information available from US FCC via Universal Licensing System and Coast Guard Vessel Documentation Center.

Last reported at 2016-Jul-30 09:30 UTC. Time now 2016-Jul-30 11:10 UTC.
Position N 38°03' W 122°06'.

Length 31 m; draft 4.6 m.

Type: Tug. MMSI: 366998680.

Date/timePositionNaut miles runAvg speedWind from/ knotsBaromVisibWave heightAir tempDewpointWater temp
2016-Jul-30 09:30N 38°03' W 122°06'1111.6
2016-Jul-30 08:33N 38°02' W 121°52'2 1.7
2016-Jul-30 07:34N 38°02' W 121°50'3 2.9
2016-Jul-30 06:34N 38°03' W 121°53'12 3.8
2016-Jul-30 03:26N 38°02' W 122°08'0 0.0
2016-Jul-30 02:33N 38°02' W 122°08'0 0.0
2016-Jul-30 00:34N 38°02' W 122°08'0 0.0
2016-Jul-29 23:34N 38°02' W 122°08'0 0.0
2016-Jul-29 22:28N 38°02' W 122°08'0 0.0
2016-Jul-29 15:07N 38°02' W 122°08'2 4.1
2016-Jul-29 14:33N 38°03' W 122°11'1110.6
2016-Jul-29 13:33N 38°01' W 122°24'6 6.2
2016-Jul-29 12:33N 37°55' W 122°23'0 0.0
2016-Jul-29 11:32N 37°55' W 122°23'0 0.0
2016-Jul-29 10:34N 37°55' W 122°23'0 0.0
2016-Jul-29 09:34N 37°55' W 122°23'0 0.0
2016-Jul-29 08:34N 37°55' W 122°23'0 0.0
2016-Jul-29 07:33N 37°55' W 122°23'0 0.0
2016-Jul-29 06:34N 37°55' W 122°23'1 0.9
2016-Jul-29 05:33N 37°54' W 122°22'1 0.6
2016-Jul-29 04:33N 37°55' W 122°22'1 1.4
2016-Jul-29 03:33N 37°54' W 122°24'0 0.0
2016-Jul-29 02:33N 37°54' W 122°24'0 0.0
2016-Jul-29 01:34N 37°54' W 122°24'1 1.3
2016-Jul-29 00:33N 37°55' W 122°25'3 2.6
2016-Jul-28 23:33N 37°54' W 122°22'6 5.1
2016-Jul-28 22:29N 37°59' W 122°25'1010.7
2016-Jul-28 21:33N 38°04' W 122°14'4 0.6
2016-Jul-28 14:08N 38°02' W 122°09'2 0.1
2016-Jul-27 23:28N 38°03' W 122°11'1111.5
2016-Jul-27 22:33N 38°00' W 122°24'1111.2
2016-Jul-27 21:33N 37°49' W 122°22'2 2.3
2016-Jul-27 20:33N 37°49' W 122°19'0 0.0
2016-Jul-27 19:33N 37°49' W 122°19'0 0.0
2016-Jul-27 18:33N 37°49' W 122°19'2 1.6
2016-Jul-27 17:34N 37°48' W 122°19'1 0.9
2016-Jul-27 16:34N 37°48' W 122°18'3 3.4
2016-Jul-27 15:33N 37°47' W 122°22'1 0.6
2016-Jul-27 14:34N 37°47' W 122°23'1 0.6
2016-Jul-27 13:34N 37°48' W 122°23'4 3.9
2016-Jul-27 12:34N 37°48' W 122°18'2 2.1
2016-Jul-27 11:34N 37°48' W 122°21'0 0.0
2016-Jul-27 10:33N 37°48' W 122°21'0 0.0
2016-Jul-27 09:34N 37°48' W 122°21'0 0.0
2016-Jul-27 08:33N 37°48' W 122°21'0 0.0
2016-Jul-27 07:34N 37°48' W 122°21'0 0.0
2016-Jul-27 06:34N 37°48' W 122°21'0 0.0
2016-Jul-27 05:34N 37°48' W 122°21'5 4.6
2016-Jul-27 04:33N 37°52' W 122°24'2 2.5
2016-Jul-27 03:33N 37°54' W 122°22'3 2.9
2016-Jul-27 02:34N 37°53' W 122°25'4 3.9
2016-Jul-27 01:33N 37°50' W 122°22'4 3.6
2016-Jul-27 00:33N 37°48' W 122°19'0 0.0
2016-Jul-26 23:34N 37°48' W 122°19'2 1.5
2016-Jul-26 22:33N 37°49' W 122°19'0 0.0
2016-Jul-26 21:33N 37°49' W 122°19'0 0.0
2016-Jul-26 20:33N 37°49' W 122°19'0 0.0
2016-Jul-26 19:33N 37°49' W 122°19'0 0.0
2016-Jul-26 18:33N 37°49' W 122°19'0 0.0
2016-Jul-26 17:33N 37°49' W 122°19'0 0.0
2016-Jul-26 16:33N 37°49' W 122°19'0 0.0
2016-Jul-26 15:33N 37°49' W 122°19'0 0.0
2016-Jul-26 14:33N 37°49' W 122°19'2 1.6
2016-Jul-26 13:33N 37°48' W 122°19'2 2.0
2016-Jul-26 12:33N 37°48' W 122°22'3 2.6
2016-Jul-26 11:33N 37°49' W 122°19'0 0.0
2016-Jul-26 10:33N 37°49' W 122°19'0 0.0
2016-Jul-26 09:34N 37°49' W 122°19'0 0.0
2016-Jul-26 08:33N 37°49' W 122°19'0 0.0
2016-Jul-26 07:33N 37°49' W 122°19'0 0.0
2016-Jul-26 06:33N 37°49' W 122°19'0 0.0
2016-Jul-26 05:33N 37°49' W 122°19'0 0.0
2016-Jul-26 04:34N 37°49' W 122°19'0 0.0
2016-Jul-26 03:33N 37°49' W 122°19'0 0.0
2016-Jul-26 02:33N 37°49' W 122°19'0 0.0
2016-Jul-26 01:34N 37°49' W 122°19'0 0.0
2016-Jul-26 00:34N 37°49' W 122°19'0 0.0
2016-Jul-25 23:34N 37°49' W 122°19'0 0.0
2016-Jul-25 22:34N 37°49' W 122°19'0 0.0
2016-Jul-25 21:34N 37°49' W 122°19'0 0.0
2016-Jul-25 20:34N 37°49' W 122°19'0 0.0
2016-Jul-25 19:33N 37°49' W 122°19'0 0.0
2016-Jul-25 18:33N 37°49' W 122°19'0 0.0
2016-Jul-25 17:34N 37°49' W 122°19'0 0.0
2016-Jul-25 16:33N 37°49' W 122°19'0 0.0
2016-Jul-25 15:33N 37°49' W 122°19'0 0.0
2016-Jul-25 14:33N 37°49' W 122°19'0 0.0
2016-Jul-25 13:34N 37°49' W 122°19'0 0.0
2016-Jul-25 12:33N 37°49' W 122°19'1 0.9
2016-Jul-25 11:33N 37°49' W 122°20'0 0.3
2016-Jul-25 10:33N 37°49' W 122°20'1 1.2
2016-Jul-25 09:33N 37°49' W 122°19'0 0.0
2016-Jul-25 08:34N 37°49' W 122°19'0 0.0
2016-Jul-25 07:33N 37°49' W 122°19'0 0.0
2016-Jul-25 06:34N 37°49' W 122°19'0 0.0
2016-Jul-25 05:34N 37°49' W 122°19'0 0.0
2016-Jul-25 04:33N 37°49' W 122°19'0 0.0
2016-Jul-25 03:33N 37°49' W 122°19'2 1.6
2016-Jul-25 02:33N 37°48' W 122°19'0 0.2
2016-Jul-25 01:34N 37°48' W 122°19'1 0.5
2016-Jul-25 00:33N 37°48' W 122°19'2 1.6
2016-Jul-24 23:33N 37°49' W 122°19'0 0.0
2016-Jul-24 22:33N 37°49' W 122°19'0 0.0
2016-Jul-24 21:33N 37°49' W 122°19'0 0.0
2016-Jul-24 20:33N 37°49' W 122°19'0 0.0
2016-Jul-24 19:33N 37°49' W 122°19'0 0.0
2016-Jul-24 18:33N 37°49' W 122°19'0 0.0
2016-Jul-24 17:33N 37°49' W 122°19'0 0.0
2016-Jul-24 16:33N 37°49' W 122°19'0 0.0
2016-Jul-24 15:33N 37°49' W 122°19'0 0.0
2016-Jul-24 14:33N 37°49' W 122°19'2 1.6
2016-Jul-24 13:32N 37°48' W 122°18'1 0.5
2016-Jul-24 12:30N 37°48' W 122°17'3 2.8
2016-Jul-24 11:33N 37°48' W 122°21'2 1.9
2016-Jul-24 10:33N 37°49' W 122°19'0 0.0
2016-Jul-24 09:33N 37°49' W 122°19'0 0.0
2016-Jul-24 08:33N 37°49' W 122°19'0 0.0
2016-Jul-24 07:33N 37°49' W 122°19'0 0.0
2016-Jul-24 06:34N 37°49' W 122°19'0 0.0
2016-Jul-24 05:33N 37°49' W 122°19'0 0.0
2016-Jul-24 04:33N 37°49' W 122°19'0 0.0
2016-Jul-24 03:33N 37°49' W 122°19'0 0.0
2016-Jul-24 02:33N 37°49' W 122°19'0 0.0
2016-Jul-24 01:33N 37°49' W 122°19'0 0.0
2016-Jul-24 00:33N 37°49' W 122°19'0 0.0
2016-Jul-23 23:33N 37°49' W 122°19'0 0.0
2016-Jul-23 22:33N 37°49' W 122°19'0 0.0
2016-Jul-23 21:33N 37°49' W 122°19'0 0.0
2016-Jul-23 20:33N 37°49' W 122°19'0 0.0
2016-Jul-23 19:33N 37°49' W 122°19'0 0.0
2016-Jul-23 18:33N 37°49' W 122°19'0 0.0
2016-Jul-23 17:33N 37°49' W 122°19'0 0.0
2016-Jul-23 16:33N 37°49' W 122°19'0 0.0
2016-Jul-23 15:33N 37°49' W 122°19'0 0.0
2016-Jul-23 14:33N 37°49' W 122°19'0 0.0
2016-Jul-23 13:33N 37°49' W 122°19'0 0.0
2016-Jul-23 12:33N 37°49' W 122°19'0 0.0
2016-Jul-23 11:33N 37°49' W 122°19'0 0.0
2016-Jul-23 10:33N 37°49' W 122°19'0 0.0
2016-Jul-23 09:33N 37°49' W 122°19'0 0.0
2016-Jul-23 08:34N 37°49' W 122°19'0 0.0
2016-Jul-23 07:33N 37°49' W 122°19'0 0.0
2016-Jul-23 06:33N 37°49' W 122°19'6 3.2
2016-Jul-23 04:33N 37°55' W 122°22'1 0.9
2016-Jul-23 03:33N 37°54' W 122°22'3 3.2
2016-Jul-23 02:33N 37°56' W 122°26'7 7.0
2016-Jul-23 01:33N 38°02' W 122°21'9 8.3
2016-Jul-23 00:25N 38°02' W 122°09'6 0.5
2016-Jul-22 13:16N 38°04' W 122°02'8 7.2
2016-Jul-22 12:08N 38°02' W 121°52'0 0.0
2016-Jul-22 11:33N 38°02' W 121°52'2 2.1
2016-Jul-22 10:33N 38°01' W 121°49'6 5.3
2016-Jul-22 09:26N 38°03' W 121°56'17 0.6
2016-Jul-21 04:33N 38°03' W 122°18'10 9.6
2016-Jul-21 03:33N 37°55' W 122°24'2 1.9
2016-Jul-21 02:33N 37°54' W 122°22'3 2.8
2016-Jul-21 01:33N 37°53' W 122°25'2 1.8
2016-Jul-21 00:33N 37°54' W 122°24'0 0.0
2016-Jul-20 23:33N 37°54' W 122°24'0 0.0
2016-Jul-20 22:33N 37°54' W 122°24'0 0.0
2016-Jul-20 21:33N 37°54' W 122°24'0 0.0
2016-Jul-20 20:33N 37°54' W 122°24'1 1.4
2016-Jul-20 19:33N 37°55' W 122°22'3 2.6
2016-Jul-20 18:27N 37°54' W 122°25'7 7.7
2016-Jul-20 17:33N 37°48' W 122°21'0 0.0
2016-Jul-20 16:33N 37°48' W 122°21'0 0.0
2016-Jul-20 15:33N 37°48' W 122°21'0 0.0
2016-Jul-20 14:33N 37°48' W 122°21'0 0.0
2016-Jul-20 13:33N 37°48' W 122°21'2 1.8
2016-Jul-20 12:34N 37°48' W 122°18'0 0.4
2016-Jul-20 11:34N 37°48' W 122°19'2 1.5
2016-Jul-20 10:33N 37°49' W 122°19'0 0.2
2016-Jul-20 09:34N 37°49' W 122°19'  

Dump ship's entire track history